Pagina principale
METAR-TAF:

METAR-TAF

Aeroporti :

Tabarka, Tunisia

latitudine: 36-57N, longitudine: 008-45E, altezza: 20 m

Osservazione

Il bollettino è stato emesso 1 ora e 10 minuti fa, alle 14:00 UTC
Vento 7 kt da ovest
Temperature 22°C
Umidità 41%
Pressione 1012 hPa
Visibilità 10 km o più
Nubi sparse ad un'altezza di 2000 ft

METAR: DTKA 061400Z 27007KT 9999 SCT020 22/08 Q1012 NOSIG

Ora: 16:10 (15:10 UTC)

Previsione

Il bollettino è stato emesso 3 ore e 10 minuti fa, alle 12:00 UTC
Previsione valida dal 06 alle 13 UTC al 06 alle 22 UTC
Vento 7 kt da sud-ovest
Visibilità 10 km o più
Poco nuvoloso ad un'altezza di 2000 ft
Evoluzione graduale
dal 06 alle 16 UTC al 06 alle 18 UTC
Vento 15 kt da ovest

TAF: DTKA 061200Z 0613/0622 22007KT 9999 FEW020 BECMG 0616/0618 28015KT

Osservazioni e previsioni meteorologiche di più di 4000 aeroporti (messaggi METAR e TAF).

Le stazioni disponibili sono rappresentate dai dischi gialli e rossi sulla carta.

Puntare il mouse per vedere il nome della stazione.

Clicca sopra per visualizzare le osservazioni e previsioni meteorologiche.

Per cambiare la mappa : fare clic sui pulsanti verdi con una croce nera per ingrandire, il pulsante verde con un trattino per diminuire, o sulla freccia verde per le mappe adiacenti.


METAR-TAF: